Time;durP1;ratioP1;P1;durP2;ratioP2;P2;SDS_P1;SDS_P2;PMS_P1;PMS_P2;Temp;Humidity;BMP_temperature;BMP_pressure;BME280_temperature;BME280_humidity;BME280_pressure;Samples;Min_cycle;Max_cycle;Signal;HPM_P1;HPM_P2
2021/06/06 00:00:28;;;;;;;11.80;6.70;;;;;;;15.85;55.41;101897.94;8093707;28;20047;-68
2021/06/06 00:04:21;;;;;;;10.88;7.43;;;;;;;15.81;55.47;101888.53;8084726;28;20045;-68
2021/06/06 00:08:12;;;;;;;11.50;6.85;;;;;;;15.79;55.41;101890.44;8104403;28;20034;-68
2021/06/06 00:12:03;;;;;;;9.98;6.70;;;;;;;15.74;55.54;101896.06;8102516;28;20035;-68
2021/06/06 00:15:55;;;;;;;11.32;6.15;;;;;;;15.70;55.55;101890.16;8103643;28;20038;-68
2021/06/06 00:19:45;;;;;;;9.40;5.97;;;;;;;15.66;55.49;101885.19;8102819;28;20039;-68
2021/06/06 00:23:36;;;;;;;9.32;6.68;;;;;;;15.67;55.66;101886.84;8103728;28;20073;-68
2021/06/06 00:27:27;;;;;;;10.32;6.38;;;;;;;15.61;55.53;101885.50;8103540;28;20789;-68
2021/06/06 00:31:18;;;;;;;10.73;6.15;;;;;;;15.62;55.58;101889.81;8102842;28;20077;-67
2021/06/06 00:35:11;;;;;;;10.57;6.18;;;;;;;15.63;55.69;101894.19;8094368;28;20483;-68
2021/06/06 00:39:03;;;;;;;8.57;5.65;;;;;;;15.63;55.59;101901.28;8103661;28;20035;-68
2021/06/06 00:42:55;;;;;;;10.95;6.00;;;;;;;15.55;55.50;101893.03;8103316;28;20046;-68
2021/06/06 00:46:48;;;;;;;7.68;5.63;;;;;;;15.57;55.69;101899.94;8102905;28;20534;-67
2021/06/06 00:50:51;;;;;;;7.80;5.38;;;;;;;15.56;55.62;101908.81;8103089;28;20032;-68
2021/06/06 00:54:46;;;;;;;10.40;6.05;;;;;;;15.53;55.80;101897.59;8083727;28;20492;-67
2021/06/06 00:58:40;;;;;;;10.27;5.82;;;;;;;15.52;55.61;101899.41;8037198;28;20563;-67
2021/06/06 01:02:31;;;;;;;10.57;5.78;;;;;;;15.56;55.75;101902.66;8072592;28;20065;-68
2021/06/06 01:06:34;;;;;;;10.15;5.60;;;;;;;15.55;55.71;101901.81;8094411;28;20039;-68
2021/06/06 01:10:25;;;;;;;8.82;5.53;;;;;;;15.56;55.86;101906.16;8106853;28;20080;-67
2021/06/06 01:14:23;;;;;;;12.32;5.57;;;;;;;15.50;55.62;101905.78;8108688;28;20032;-67
2021/06/06 01:18:23;;;;;;;8.27;5.55;;;;;;;15.56;55.65;101908.81;8108504;28;20039;-68
2021/06/06 01:22:35;;;;;;;9.18;5.15;;;;;;;15.56;55.68;101900.03;8106284;28;20708;-67
2021/06/06 01:26:35;;;;;;;9.93;5.47;;;;;;;15.55;55.73;101895.69;8108246;28;20123;-70
2021/06/06 01:30:31;;;;;;;6.38;4.93;;;;;;;15.54;55.57;101894.81;8106583;28;20165;-71
2021/06/06 01:34:25;;;;;;;8.50;5.38;;;;;;;15.52;55.63;101902.03;8097841;28;20055;-70
2021/06/06 01:38:36;;;;;;;9.60;5.05;;;;;;;15.47;55.61;101898.88;8087898;28;20720;-70
2021/06/06 01:42:36;;;;;;;9.38;5.22;;;;;;;15.45;55.69;101884.91;8087287;28;20496;-69
2021/06/06 01:46:36;;;;;;;9.65;6.13;;;;;;;15.45;55.72;101890.22;8107955;28;20031;-70
2021/06/06 01:50:35;;;;;;;6.43;5.32;;;;;;;15.43;55.62;101894.75;8105713;28;20114;-69
2021/06/06 01:54:31;;;;;;;10.60;5.57;;;;;;;15.41;55.76;101899.31;8107612;28;20050;-69
2021/06/06 01:58:23;;;;;;;7.60;5.22;;;;;;;15.34;55.66;101886.59;8105521;28;20028;-69
2021/06/06 02:02:18;;;;;;;6.53;5.22;;;;;;;15.38;55.73;101890.72;8071265;28;20048;-69
2021/06/06 02:06:14;;;;;;;9.10;5.82;;;;;;;15.37;55.49;101892.53;8098136;28;20059;-70
2021/06/06 02:10:18;;;;;;;10.60;5.18;;;;;;;15.35;55.74;101894.44;8106543;28;20418;-69
2021/06/06 02:14:18;;;;;;;9.73;5.63;;;;;;;15.35;55.80;101896.25;8105442;28;20479;-70
2021/06/06 02:18:10;;;;;;;10.02;5.00;;;;;;;15.35;55.76;101896.25;8106692;28;20043;-69
2021/06/06 02:22:06;;;;;;;8.50;5.65;;;;;;;15.35;55.64;101893.59;8104724;28;20065;-70
2021/06/06 02:26:11;;;;;;;8.93;5.43;;;;;;;15.28;55.56;101880.75;8105837;28;20039;-70
2021/06/06 02:30:18;;;;;;;7.78;5.32;;;;;;;15.31;55.42;101886.81;8104715;28;20106;-70
2021/06/06 02:34:33;;;;;;;7.57;5.22;;;;;;;15.30;55.50;101896.56;8094997;28;20043;-70
2021/06/06 02:38:34;;;;;;;10.57;6.68;;;;;;;15.26;55.65;101890.59;8106677;28;20032;-70
2021/06/06 02:42:33;;;;;;;11.93;6.28;;;;;;;15.21;55.44;101898.00;8104287;28;20073;-69
2021/06/06 02:46:29;;;;;;;7.28;4.65;;;;;;;15.19;55.78;101896.44;8104537;28;20101;-70
2021/06/06 02:50:26;;;;;;;8.57;5.38;;;;;;;15.17;55.73;101899.16;8105815;28;20028;-70
2021/06/06 02:54:29;;;;;;;10.05;5.88;;;;;;;15.16;55.75;101905.44;8104710;28;20027;-70
2021/06/06 02:58:28;;;;;;;7.85;5.18;;;;;;;15.14;55.70;101896.75;8105209;28;20066;-70
2021/06/06 03:02:24;;;;;;;9.85;6.13;;;;;;;15.12;55.87;101893.38;8077002;28;20032;-70
2021/06/06 03:06:23;;;;;;;10.40;5.78;;;;;;;15.11;55.81;101889.03;8071171;28;20032;-70
2021/06/06 03:10:17;;;;;;;8.93;5.78;;;;;;;15.07;56.10;101890.19;8072588;28;20636;-69
2021/06/06 03:14:12;;;;;;;9.05;6.05;;;;;;;15.04;55.92;101889.56;8072490;28;20040;-70
2021/06/06 03:18:09;;;;;;;11.15;6.22;;;;;;;15.00;56.02;101888.09;8073045;28;20043;-69
2021/06/06 03:22:05;;;;;;;9.95;5.70;;;;;;;14.98;56.08;101887.31;8070389;28;20069;-69
2021/06/06 03:26:06;;;;;;;14.43;6.88;;;;;;;14.96;55.92;101891.88;8072765;28;20579;-69
2021/06/06 03:30:08;;;;;;;6.38;4.97;;;;;;;14.96;56.22;101890.06;8070052;28;20042;-70
2021/06/06 03:34:06;;;;;;;8.48;5.20;;;;;;;14.94;56.17;101885.84;8079967;28;20040;-70
2021/06/06 03:38:07;;;;;;;10.13;5.47;;;;;;;14.95;56.18;101884.91;8103245;28;20040;-70
2021/06/06 03:42:00;;;;;;;8.82;5.40;;;;;;;14.96;56.33;101883.94;8105054;28;20035;-71
2021/06/06 03:45:52;;;;;;;7.65;4.72;;;;;;;14.95;56.39;101879.59;8102590;28;20031;-70
2021/06/06 03:49:43;;;;;;;7.25;5.00;;;;;;;14.93;56.51;101871.75;8102692;28;20031;-71
2021/06/06 03:53:37;;;;;;;7.60;5.63;;;;;;;14.90;56.44;101874.63;8102400;28;20046;-70
2021/06/06 03:57:28;;;;;;;7.03;5.03;;;;;;;14.94;56.35;101877.91;8102703;28;20031;-70
2021/06/06 04:01:19;;;;;;;6.47;4.55;;;;;;;14.85;56.50;101862.66;8082167;28;20032;-69
2021/06/06 04:05:12;;;;;;;8.88;5.47;;;;;;;14.89;56.30;101878.22;8087883;28;20039;-70
2021/06/06 04:09:06;;;;;;;10.77;6.65;;;;;;;14.89;56.59;101880.00;8101537;28;20424;-70
2021/06/06 04:12:57;;;;;;;10.18;6.07;;;;;;;14.79;56.46;101872.69;8102770;28;20028;-69
2021/06/06 04:16:48;;;;;;;8.70;6.32;;;;;;;14.80;56.56;101873.53;8103539;28;20437;-70
2021/06/06 04:20:40;;;;;;;11.65;7.05;;;;;;;14.84;56.67;101888.25;8101746;28;20039;-69
2021/06/06 04:24:33;;;;;;;10.73;7.05;;;;;;;14.84;56.70;101885.59;8103707;28;20632;-70
2021/06/06 04:28:25;;;;;;;12.45;6.55;;;;;;;14.85;56.68;101884.66;8103177;28;20475;-71
2021/06/06 04:32:21;;;;;;;9.75;6.85;;;;;;;14.76;56.42;101864.13;8100209;28;20127;-67
2021/06/06 04:36:12;;;;;;;10.57;7.70;;;;;;;14.86;56.48;101883.72;8093537;28;20395;-69
2021/06/06 04:40:05;;;;;;;10.55;6.95;;;;;;;14.79;56.50;101880.63;8100755;28;20036;-70
2021/06/06 04:43:56;;;;;;;10.02;6.40;;;;;;;14.81;56.62;101883.19;8105090;28;20043;-70
2021/06/06 04:47:48;;;;;;;10.70;6.50;;;;;;;14.83;56.80;101886.59;8109331;28;20046;-69
2021/06/06 04:51:39;;;;;;;11.57;7.35;;;;;;;14.86;56.68;101890.81;8107937;28;20097;-69
2021/06/06 04:55:41;;;;;;;9.60;6.97;;;;;;;14.83;57.06;101897.16;8108344;28;20027;-69
2021/06/06 04:59:35;;;;;;;13.65;7.53;;;;;;;14.79;56.83;101888.56;8105290;28;20035;-69
2021/06/06 05:03:26;;;;;;;12.02;7.18;;;;;;;14.80;56.92;101903.50;8083185;28;20033;-70
2021/06/06 05:07:17;;;;;;;12.15;7.60;;;;;;;14.80;57.13;101908.78;8095918;28;20036;-68
2021/06/06 05:11:09;;;;;;;11.25;7.78;;;;;;;14.81;56.99;101899.91;8074420;28;20028;-68
2021/06/06 05:15:03;;;;;;;13.05;7.97;;;;;;;14.80;56.85;101898.19;8076373;28;20032;-69
2021/06/06 05:18:55;;;;;;;10.43;7.38;;;;;;;14.81;56.68;101894.63;8075151;28;20066;-68
2021/06/06 05:22:47;;;;;;;11.50;7.55;;;;;;;14.77;57.11;101897.56;8074856;28;20505;-69
2021/06/06 05:26:37;;;;;;;13.45;8.15;;;;;;;14.80;57.01;101894.72;8075670;28;20494;-69
2021/06/06 05:30:32;;;;;;;17.02;9.20;;;;;;;14.80;57.24;101894.72;8074635;28;20035;-69
2021/06/06 05:34:23;;;;;;;13.20;8.50;;;;;;;14.80;57.20;101892.91;8087587;28;20487;-69
2021/06/06 05:38:15;;;;;;;12.32;9.35;;;;;;;14.80;57.16;101895.56;8108405;28;20073;-69
2021/06/06 05:42:06;;;;;;;16.20;9.23;;;;;;;14.81;57.37;101899.91;8107287;28;20035;-68
2021/06/06 05:45:58;;;;;;;16.95;10.05;;;;;;;14.81;57.16;101899.06;8107377;28;20096;-70
2021/06/06 05:49:48;;;;;;;14.52;9.75;;;;;;;14.79;57.27;101906.25;8107873;28;20031;-69
2021/06/06 05:53:46;;;;;;;19.77;9.32;;;;;;;14.80;57.28;101900.84;8105971;28;20130;-68
2021/06/06 05:57:37;;;;;;;14.15;9.48;;;;;;;14.83;57.48;101901.59;8106985;28;20092;-69
2021/06/06 06:01:27;;;;;;;14.05;9.20;;;;;;;14.86;57.32;101896.94;8085469;28;20035;-69
2021/06/06 06:05:18;;;;;;;15.05;9.40;;;;;;;14.90;57.19;101913.47;8094118;28;20038;-69
2021/06/06 06:09:11;;;;;;;15.05;8.95;;;;;;;14.91;57.39;101908.06;8107181;28;20043;-69
2021/06/06 06:13:01;;;;;;;15.38;8.20;;;;;;;14.94;57.27;101912.28;8089250;27;20063;-69
2021/06/06 06:16:52;;;;;;;15.65;9.23;;;;;;;14.94;57.26;101909.66;8074364;28;20526;-69
2021/06/06 06:20:43;;;;;;;15.27;8.45;;;;;;;14.95;57.42;101919.28;8073765;28;20043;-69
2021/06/06 06:24:35;;;;;;;15.30;9.60;;;;;;;14.97;57.50;101918.22;8073088;28;20063;-69
2021/06/06 06:28:26;;;;;;;14.05;8.73;;;;;;;15.01;57.53;101917.06;8073887;28;20040;-69
2021/06/06 06:32:32;;;;;;;19.13;10.05;;;;;;;15.05;57.56;101925.63;8052346;28;20032;-69
2021/06/06 06:36:23;;;;;;;14.18;9.32;;;;;;;15.07;57.46;101919.31;8073227;28;20042;-69
2021/06/06 06:40:15;;;;;;;14.88;8.80;;;;;;;15.11;57.52;101920.78;8073446;28;20029;-68
2021/06/06 06:44:06;;;;;;;12.77;8.45;;;;;;;15.14;57.58;101911.78;8074654;28;20048;-66
2021/06/06 06:48:02;;;;;;;13.00;8.57;;;;;;;15.17;57.54;101916.84;8073897;28;20559;-69
2021/06/06 06:51:53;;;;;;;13.73;8.57;;;;;;;15.20;57.38;101919.31;8054371;28;20064;-68
2021/06/06 06:55:45;;;;;;;14.82;8.80;;;;;;;15.19;57.54;101910.53;8056979;28;20086;-68
2021/06/06 06:59:37;;;;;;;16.95;10.10;;;;;;;15.24;57.34;101923.44;8056731;28;20024;-69
2021/06/06 07:03:31;;;;;;;14.05;9.50;;;;;;;15.22;57.36;101925.31;8057456;28;20464;-69
2021/06/06 07:07:22;;;;;;;17.13;9.18;;;;;;;15.18;57.37;101926.50;8053833;27;20403;-70
2021/06/06 07:11:16;;;;;;;17.35;9.57;;;;;;;15.15;57.32;101934.66;8056078;28;20032;-68
2021/06/06 07:15:09;;;;;;;13.38;7.80;;;;;;;15.10;57.34;101924.38;8058119;27;20103;-67
2021/06/06 07:19:01;;;;;;;13.73;7.88;;;;;;;15.08;57.23;101928.09;8048809;28;20032;-67
2021/06/06 07:22:52;;;;;;;14.25;9.15;;;;;;;15.06;57.32;101932.63;8048746;27;20050;-69
2021/06/06 07:26:46;;;;;;;14.68;9.40;;;;;;;15.07;57.46;101934.34;8056950;28;20038;-69
2021/06/06 07:30:47;;;;;;;17.70;8.93;;;;;;;15.08;57.27;101928.94;8056648;28;20024;-68
2021/06/06 07:34:37;;;;;;;13.95;8.98;;;;;;;15.02;57.35;101920.56;8056302;28;20048;-67
2021/06/06 07:38:28;;;;;;;12.50;7.85;;;;;;;14.96;57.40;101911.22;8059014;28;20032;-68
2021/06/06 07:42:19;;;;;;;15.82;8.90;;;;;;;15.09;57.35;101935.06;8058078;28;20038;-68
2021/06/06 07:46:10;;;;;;;16.27;9.38;;;;;;;15.06;57.32;101936.13;8055617;28;20036;-68
2021/06/06 07:50:00;;;;;;;13.55;9.32;;;;;;;15.14;57.50;101939.09;8055904;28;20035;-68
2021/06/06 07:53:52;;;;;;;14.18;8.25;;;;;;;15.17;57.41;101940.66;8054794;28;20040;-69
2021/06/06 07:57:43;;;;;;;12.10;8.32;;;;;;;15.20;57.37;101933.41;8057259;28;20057;-68
2021/06/06 08:01:34;;;;;;;16.10;8.95;;;;;;;15.31;57.25;101939.75;8056720;28;20059;-69
2021/06/06 08:05:25;;;;;;;16.00;9.52;;;;;;;15.37;57.50;101936.72;8056614;28;20028;-69
2021/06/06 08:09:16;;;;;;;13.40;8.93;;;;;;;15.39;57.45;101940.06;8053997;27;20044;-69
2021/06/06 08:13:07;;;;;;;15.63;9.27;;;;;;;15.40;57.50;101939.97;8053350;28;20547;-69
2021/06/06 08:16:58;;;;;;;12.18;7.80;;;;;;;15.41;57.72;101940.84;8060205;28;20134;-69
2021/06/06 08:20:53;;;;;;;13.43;8.82;;;;;;;15.40;57.31;101939.13;8061807;28;20109;-68
2021/06/06 08:24:43;;;;;;;13.15;8.70;;;;;;;15.44;57.43;101948.56;8063800;28;20093;-68
2021/06/06 08:28:35;;;;;;;11.55;8.82;;;;;;;15.47;57.46;101951.84;8062763;28;20032;-68
2021/06/06 08:32:26;;;;;;;12.68;8.20;;;;;;;15.51;57.50;101953.31;8063108;28;20126;-67
2021/06/06 08:36:27;;;;;;;16.20;9.20;;;;;;;15.51;57.39;101942.72;8062902;28;20072;-68
2021/06/06 08:40:29;;;;;;;14.32;8.18;;;;;;;15.51;57.42;101940.06;8064039;28;20105;-68
2021/06/06 08:44:26;;;;;;;15.10;9.40;;;;;;;15.51;57.38;101948.00;8064516;28;20048;-68
2021/06/06 08:48:19;;;;;;;14.85;8.73;;;;;;;15.59;57.23;101945.66;8062969;28;20035;-68
2021/06/06 08:52:27;;;;;;;13.18;8.25;;;;;;;15.62;57.18;101941.97;8060222;28;20023;-68
2021/06/06 08:56:22;;;;;;;13.53;9.53;;;;;;;15.69;57.33;101949.38;8063346;28;20032;-68
2021/06/06 09:00:30;;;;;;;14.35;8.38;;;;;;;15.83;57.24;101951.03;8064194;28;20028;-68
2021/06/06 09:04:32;;;;;;;15.68;8.38;;;;;;;15.94;57.32;101951.13;8059523;28;20028;-68
2021/06/06 09:08:25;;;;;;;17.05;8.90;;;;;;;15.98;57.29;101944.66;8060832;28;20144;-67
2021/06/06 09:12:21;;;;;;;13.70;8.57;;;;;;;16.12;57.15;101941.00;8063311;28;20050;-67
2021/06/06 09:16:22;;;;;;;12.45;8.75;;;;;;;16.20;57.19;101953.75;8057397;28;20431;-66
2021/06/06 09:20:39;;;;;;;12.52;8.05;;;;;;;16.26;57.02;101947.97;8060993;28;20039;-66
2021/06/06 09:24:38;;;;;;;14.70;8.43;;;;;;;16.31;56.93;101964.41;8061192;27;21165;-67
2021/06/06 09:28:30;;;;;;;12.38;8.32;;;;;;;16.32;56.90;101964.28;8060751;28;20031;-66
2021/06/06 09:32:22;;;;;;;10.18;6.53;;;;;;;16.37;56.94;101961.31;8058751;28;20086;-67
2021/06/06 09:36:25;;;;;;;12.23;7.88;;;;;;;16.40;56.78;101969.88;8062994;28;20096;-68
2021/06/06 09:40:33;;;;;;;13.45;7.75;;;;;;;16.44;56.92;101971.34;8059092;28;20476;-68
2021/06/06 09:44:32;;;;;;;15.40;8.13;;;;;;;16.47;56.94;101965.81;8060734;28;20036;-68
2021/06/06 09:48:26;;;;;;;12.70;7.80;;;;;;;16.56;56.76;101972.25;8061391;28;20714;-68
2021/06/06 09:52:21;;;;;;;14.15;8.40;;;;;;;16.62;56.80;101963.81;8058115;28;20065;-68
2021/06/06 09:56:21;;;;;;;12.30;7.95;;;;;;;16.62;56.66;101969.97;8058604;28;20040;-68
2021/06/06 10:00:25;;;;;;;13.50;7.57;;;;;;;16.60;56.59;101968.41;8056412;28;21152;-68
2021/06/06 10:04:26;;;;;;;12.95;7.78;;;;;;;16.53;56.79;101969.81;8057273;28;20714;-68
2021/06/06 10:08:26;;;;;;;12.73;8.27;;;;;;;16.51;56.56;101977.03;8059392;28;20072;-67
2021/06/06 10:12:53;;;;;;;15.35;8.30;;;;;;;16.43;56.81;101976.75;8057492;28;20091;-67
2021/06/06 10:16:46;;;;;;;10.95;7.32;;;;;;;16.40;56.65;101963.72;8031848;28;20693;-68
2021/06/06 10:20:40;;;;;;;14.57;7.60;;;;;;;16.47;56.70;101978.22;8055292;28;20094;-68
2021/06/06 10:24:57;;;;;;;13.25;7.72;;;;;;;16.48;56.70;101982.56;8056558;28;20027;-68
2021/06/06 10:28:55;;;;;;;11.30;7.20;;;;;;;16.51;56.67;101983.19;8058094;28;20039;-68
2021/06/06 10:32:46;;;;;;;11.45;7.55;;;;;;;16.50;56.50;101975.34;8055963;28;20107;-68
2021/06/06 10:36:38;;;;;;;10.65;7.38;;;;;;;16.59;56.56;101990.56;8055665;28;20032;-68
2021/06/06 10:40:38;;;;;;;13.98;9.18;;;;;;;16.63;56.44;101997.34;8052057;28;20032;-67
2021/06/06 10:44:53;;;;;;;14.65;8.50;;;;;;;16.68;56.30;101994.34;8054915;28;20032;-65
2021/06/06 10:49:19;;;;;;;13.10;7.82;;;;;;;16.67;56.40;101992.66;8052344;28;20040;-68
2021/06/06 10:53:18;;;;;;;11.93;7.53;;;;;;;16.73;56.38;101992.22;8052454;28;20032;-69
2021/06/06 10:57:09;;;;;;;10.45;7.18;;;;;;;16.80;56.42;101991.66;8056982;28;20048;-67
2021/06/06 11:01:19;;;;;;;12.35;7.80;;;;;;;16.84;56.48;101977.19;8055956;28;20452;-67
2021/06/06 11:05:29;;;;;;;9.55;7.10;;;;;;;16.90;56.32;101979.38;8051587;28;20593;-67
2021/06/06 11:09:31;;;;;;;12.00;7.90;;;;;;;16.94;56.22;101964.97;8055628;28;20106;-68
2021/06/06 11:13:54;;;;;;;13.07;8.43;;;;;;;17.06;56.31;101973.78;8054889;28;20514;-68
2021/06/06 11:17:46;;;;;;;12.27;8.50;;;;;;;17.12;56.26;101969.81;8055620;28;20419;-68
2021/06/06 11:21:52;;;;;;;14.35;8.23;;;;;;;17.15;56.08;101965.13;8052555;28;20032;-67
2021/06/06 11:25:49;;;;;;;10.77;7.32;;;;;;;17.23;56.06;101961.88;8054661;28;20418;-67
2021/06/06 11:29:53;;;;;;;13.83;7.63;;;;;;;17.30;56.25;101960.44;8056383;28;20032;-68
2021/06/06 11:33:55;;;;;;;12.48;8.13;;;;;;;17.40;55.92;101948.97;8053999;28;20787;-68
2021/06/06 11:37:50;;;;;;;15.60;8.68;;;;;;;17.51;56.02;101953.44;8055854;28;20059;-68
2021/06/06 11:41:43;;;;;;;13.65;8.55;;;;;;;17.61;56.12;101956.25;8054927;28;20049;-67
2021/06/06 11:45:40;;;;;;;12.43;8.25;;;;;;;17.68;55.98;101950.31;8056235;28;20032;-68
2021/06/06 11:49:49;;;;;;;12.80;8.40;;;;;;;17.75;55.90;101951.53;8055222;28;20519;-67
2021/06/06 11:53:42;;;;;;;13.48;8.05;;;;;;;17.74;55.52;101944.53;8050716;28;20133;-67
2021/06/06 11:57:37;;;;;;;13.57;8.38;;;;;;;17.81;55.75;101943.09;8053805;28;20660;-68
2021/06/06 12:01:29;;;;;;;14.88;8.90;;;;;;;17.84;55.59;101939.34;8051209;28;20042;-69
2021/06/06 12:05:30;;;;;;;11.88;8.15;;;;;;;17.86;55.32;101950.69;8057571;28;20046;-68
2021/06/06 12:09:33;;;;;;;13.45;7.93;;;;;;;17.89;55.37;101943.34;8055515;28;20047;-67
2021/06/06 12:13:30;;;;;;;11.32;7.85;;;;;;;17.86;55.51;101940.03;8058241;28;20032;-68
2021/06/06 12:17:23;;;;;;;14.85;8.40;;;;;;;17.84;55.43;101942.84;8058689;28;20109;-67
2021/06/06 12:21:21;;;;;;;12.70;8.48;;;;;;;17.84;54.99;101949.97;8053489;28;20036;-68
2021/06/06 12:25:14;;;;;;;12.50;8.57;;;;;;;17.81;55.27;101950.22;8055519;28;20051;-68
2021/06/06 12:29:05;;;;;;;15.80;9.00;;;;;;;17.79;55.18;101949.47;8058142;28;20559;-67
2021/06/06 12:33:19;;;;;;;12.77;8.70;;;;;;;17.76;54.87;101950.59;8056859;28;20076;-69
2021/06/06 12:37:16;;;;;;;12.88;8.75;;;;;;;17.73;55.09;101945.53;8055845;27;20051;-68
2021/06/06 12:41:08;;;;;;;12.88;8.68;;;;;;;17.74;55.20;101941.88;8055692;28;20036;-69
2021/06/06 12:45:05;;;;;;;12.07;8.68;;;;;;;17.76;54.98;101939.09;8054211;27;20109;-68
2021/06/06 12:49:00;;;;;;;11.93;7.53;;;;;;;17.83;55.07;101949.13;8056458;27;20043;-67
2021/06/06 12:52:57;;;;;;;13.32;9.32;;;;;;;17.85;54.88;101946.34;8052933;28;20040;-66
2021/06/06 12:56:50;;;;;;;12.77;8.30;;;;;;;17.88;54.92;101946.94;8056705;28;20032;-66
2021/06/06 13:01:23;;;;;;;11.98;8.45;;;;;;;17.89;55.32;101946.00;8057859;28;20069;-67
2021/06/06 13:05:15;;;;;;;11.82;8.18;;;;;;;;;;8037734;28;20036;-67
2021/06/06 13:09:08;;;;;;;10.52;8.20;;;;;;;;;;8063465;28;20044;-67
2021/06/06 13:13:00;;;;;;;10.88;8.00;;;;;;;17.94;54.71;101945.63;8062827;28;20085;-67
2021/06/06 13:17:02;;;;;;;15.45;8.18;;;;;;;;;;8062800;28;20039;-67
2021/06/06 13:20:55;;;;;;;12.38;8.90;;;;;;;18.00;54.83;101945.13;8060158;28;20040;-66
2021/06/06 13:24:47;;;;;;;10.20;7.15;;;;;;;18.05;54.75;101942.94;8062241;28;20039;-68
2021/06/06 13:28:54;;;;;;;12.00;8.40;;;;;;;18.11;54.69;101937.09;8062097;28;20759;-67
2021/06/06 13:33:01;;;;;;;12.77;8.02;;;;;;;18.13;54.48;101935.19;8059525;28;20032;-68
2021/06/06 13:36:52;;;;;;;11.25;7.57;;;;;;;18.14;54.71;101930.72;8061388;27;20930;-65
2021/06/06 13:40:50;;;;;;;10.68;7.28;;;;;;;18.17;54.33;101930.44;8061648;28;20135;-67
2021/06/06 13:44:40;;;;;;;;;;;;;;;18.05;55.08;101924.31;8061751;28;20142;-68
2021/06/06 13:48:35;;;;;;;9.23;7.25;;;;;;;18.19;54.47;101934.66;8060665;27;19942;-67
2021/06/06 13:52:25;;;;;;;9.90;6.95;;;;;;;18.23;54.70;101936.09;8058025;28;20024;-67
2021/06/06 13:56:16;;;;;;;11.10;6.85;;;;;;;18.23;54.38;101932.63;8060925;28;20114;-68
2021/06/06 14:00:12;;;;;;;7.95;6.25;;;;;;;18.29;54.36;101937.44;8059884;28;20081;-67
2021/06/06 14:04:03;;;;;;;12.85;7.35;;;;;;;18.33;54.08;101938.84;8059540;28;21425;-68
2021/06/06 14:07:54;;;;;;;11.40;7.30;;;;;;;18.37;53.99;101940.28;8060893;28;20653;-68
2021/06/06 14:11:48;;;;;;;11.85;7.47;;;;;;;18.38;53.87;101936.69;8060061;28;20038;-68
2021/06/06 14:15:39;;;;;;;9.80;7.32;;;;;;;18.43;54.26;101931.84;8059363;27;20039;-69
2021/06/06 14:19:32;;;;;;;13.73;8.07;;;;;;;18.48;54.23;101929.63;8062255;28;20093;-68
2021/06/06 14:23:25;;;;;;;9.75;7.68;;;;;;;18.55;54.28;101933.50;8055868;28;20090;-68
2021/06/06 14:27:16;;;;;;;9.23;7.30;;;;;;;18.62;54.00;101931.16;8058686;28;20054;-68
2021/06/06 14:31:06;;;;;;;9.90;7.82;;;;;;;18.69;54.22;101927.00;8059545;27;20036;-68
2021/06/06 14:34:57;;;;;;;8.20;6.65;;;;;;;18.73;53.67;101926.63;8057809;27;20043;-66
2021/06/06 14:38:48;;;;;;;8.55;6.53;;;;;;;18.76;53.98;101930.84;8062166;28;20483;-65
2021/06/06 14:42:39;;;;;;;9.07;6.63;;;;;;;18.78;53.89;101920.91;8059083;28;20044;-68
2021/06/06 14:46:30;;;;;;;8.65;6.32;;;;;;;18.81;53.55;101915.34;8058515;27;20043;-65
2021/06/06 14:50:21;;;;;;;10.02;5.93;;;;;;;18.84;53.89;101920.41;8057763;28;20024;-68
2021/06/06 14:54:14;;;;;;;9.70;6.93;;;;;;;18.89;53.46;101912.88;8056906;28;20036;-66
2021/06/06 14:58:05;;;;;;;9.93;6.82;;;;;;;18.91;53.47;101922.41;8059225;28;20776;-68
2021/06/06 15:01:56;;;;;;;8.00;5.80;;;;;;;18.93;53.39;101917.78;8057586;27;20079;-67
2021/06/06 15:05:47;;;;;;;9.82;7.15;;;;;;;18.96;53.53;101914.03;8058376;28;20032;-68
2021/06/06 15:09:38;;;;;;;9.85;7.80;;;;;;;19.00;53.44;101915.47;8058766;28;20059;-65
2021/06/06 15:13:33;;;;;;;7.85;6.53;;;;;;;19.02;53.31;101908.19;8059005;28;20044;-68
2021/06/06 15:17:23;;;;;;;9.32;6.80;;;;;;;19.06;53.81;101912.25;8058269;27;20724;-66
2021/06/06 15:21:25;;;;;;;10.38;6.97;;;;;;;19.09;53.12;101901.38;8056025;28;20491;-68
2021/06/06 15:25:18;;;;;;;9.02;6.53;;;;;;;19.12;53.46;101903.75;8057431;28;20040;-67
2021/06/06 15:29:14;;;;;;;8.32;6.47;;;;;;;19.14;53.36;101903.63;8057955;28;20624;-68
2021/06/06 15:33:08;;;;;;;7.18;5.63;;;;;;;19.15;53.17;101903.53;8057575;27;20036;-68
2021/06/06 15:37:00;;;;;;;7.97;5.47;;;;;;;19.12;53.28;101893.09;8057602;28;20089;-67
2021/06/06 15:40:53;;;;;;;9.65;6.82;;;;;;;19.08;53.00;101885.50;8058011;28;20036;-68
2021/06/06 15:44:44;;;;;;;7.97;4.80;;;;;;;19.10;52.86;101894.22;8055861;28;20080;-67
2021/06/06 15:48:35;;;;;;;5.53;4.95;;;;;;;19.10;52.79;101886.25;8057261;27;21674;-67
2021/06/06 15:52:26;;;;;;;7.55;5.63;;;;;;;19.08;53.04;101883.69;8054396;28;20060;-68
2021/06/06 15:56:17;;;;;;;9.10;5.72;;;;;;;19.09;52.78;101877.41;8056198;28;20038;-67
2021/06/06 16:00:10;;;;;;;6.43;4.43;;;;;;;19.11;52.90;101879.91;8057224;28;20036;-66
2021/06/06 16:04:05;;;;;;;5.80;4.63;;;;;;;19.11;53.06;101879.91;8056445;28;20442;-68
2021/06/06 16:07:56;;;;;;;6.60;4.85;;;;;;;19.03;52.53;101871.75;8057442;28;21121;-68
2021/06/06 16:11:46;;;;;;;6.20;5.38;;;;;;;19.06;52.49;101877.63;8057347;28;20028;-68
2021/06/06 16:15:37;;;;;;;9.82;5.65;;;;;;;18.93;52.63;101866.38;8054746;27;20036;-65
2021/06/06 16:19:28;;;;;;;12.98;7.75;;;;;;;18.90;52.79;101867.47;8058022;28;20075;-68
2021/06/06 16:23:19;;;;;;;14.65;8.02;;;;;;;18.83;52.78;101863.66;8053175;28;20028;-67
2021/06/06 16:27:09;;;;;;;7.15;5.32;;;;;;;18.78;52.86;101871.19;8056817;28;20115;-67
2021/06/06 16:31:00;;;;;;;9.63;5.90;;;;;;;18.74;52.87;101863.59;8056698;27;20392;-67
2021/06/06 16:34:50;;;;;;;10.40;5.80;;;;;;;18.71;52.57;101872.69;8055951;28;20028;-68
2021/06/06 16:38:41;;;;;;;7.53;5.28;;;;;;;18.70;52.52;101875.47;8058831;28;20031;-67
2021/06/06 16:42:32;;;;;;;5.82;4.35;;;;;;;18.70;52.73;101865.66;8058248;28;20031;-67
2021/06/06 16:46:23;;;;;;;9.70;6.15;;;;;;;18.74;52.65;101868.91;8062761;28;20063;-67
2021/06/06 16:50:14;;;;;;;7.13;5.10;;;;;;;18.79;52.63;101866.72;8059781;28;20022;-67
2021/06/06 16:54:06;;;;;;;8.02;5.85;;;;;;;18.86;52.96;101858.06;8061195;28;20040;-67
2021/06/06 16:57:56;;;;;;;6.78;5.05;;;;;;;18.95;52.74;101867.09;8058701;28;20158;-67
2021/06/06 17:01:47;;;;;;;7.65;5.45;;;;;;;19.04;52.53;101863.63;8061281;27;20067;-67
2021/06/06 17:05:38;;;;;;;6.88;5.20;;;;;;;19.05;52.51;101851.16;8058758;28;20036;-67
2021/06/06 17:09:28;;;;;;;6.43;5.47;;;;;;;19.16;52.31;101859.09;8061346;28;20072;-68
2021/06/06 17:13:25;;;;;;;11.27;5.25;;;;;;;19.16;52.23;101843.09;8061362;27;20042;-68
2021/06/06 17:17:16;;;;;;;8.00;5.32;;;;;;;19.12;52.54;101853.16;8062086;27;20043;-69
2021/06/06 17:21:09;;;;;;;7.43;5.57;;;;;;;19.09;52.31;101842.78;8059878;28;20032;-69
2021/06/06 17:25:00;;;;;;;7.38;5.20;;;;;;;19.07;52.20;101846.53;8061092;28;20408;-68
2021/06/06 17:28:51;;;;;;;6.43;4.78;;;;;;;19.07;52.29;101846.53;8060611;28;20498;-68
2021/06/06 17:32:41;;;;;;;6.78;5.30;;;;;;;19.08;52.32;101838.41;8060866;27;20040;-69
2021/06/06 17:36:32;;;;;;;5.97;4.07;;;;;;;19.06;52.52;101836.88;8061420;28;20864;-69
2021/06/06 17:40:23;;;;;;;10.02;5.28;;;;;;;18.99;52.11;101830.38;8061759;28;20047;-69
2021/06/06 17:44:17;;;;;;;6.15;4.65;;;;;;;19.01;52.50;101839.94;8058132;28;20069;-68
2021/06/06 17:48:08;;;;;;;4.85;3.88;;;;;;;18.97;52.29;101843.00;8060900;27;20050;-69
2021/06/06 17:51:59;;;;;;;6.55;4.55;;;;;;;18.92;52.16;101848.72;8057636;28;20028;-69
2021/06/06 17:55:52;;;;;;;6.40;4.10;;;;;;;18.88;52.07;101845.47;8060853;28;20028;-70
2021/06/06 17:59:43;;;;;;;5.57;3.85;;;;;;;18.84;52.35;101841.41;8061081;28;20032;-69
2021/06/06 18:03:35;;;;;;;5.78;3.70;;;;;;;18.80;52.32;101839.97;8059933;28;20043;-70
2021/06/06 18:07:25;;;;;;;7.22;4.03;;;;;;;18.77;52.44;101842.88;8060460;28;20032;-69